sensor_id;sensor_type;location;lat;lon;timestamp;temperature;humidity
41924;DHT22;27613;48.116;11.656;2022-11-23T00:01:21;3.90;99.90
41924;DHT22;27613;48.116;11.656;2022-11-23T00:03:52;3.90;99.90
41924;DHT22;27613;48.116;11.656;2022-11-23T00:06:18;3.90;99.90
41924;DHT22;27613;48.116;11.656;2022-11-23T00:08:45;3.90;99.90
41924;DHT22;27613;48.116;11.656;2022-11-23T00:11:11;3.90;99.90
41924;DHT22;27613;48.116;11.656;2022-11-23T00:13:37;3.80;99.90
41924;DHT22;27613;48.116;11.656;2022-11-23T00:16:06;3.80;99.90
41924;DHT22;27613;48.116;11.656;2022-11-23T00:18:32;3.80;99.90
41924;DHT22;27613;48.116;11.656;2022-11-23T00:20:57;3.80;99.90
41924;DHT22;27613;48.116;11.656;2022-11-23T00:23:23;3.80;99.90
41924;DHT22;27613;48.116;11.656;2022-11-23T00:25:48;3.80;99.90
41924;DHT22;27613;48.116;11.656;2022-11-23T00:28:14;3.80;99.90
41924;DHT22;27613;48.116;11.656;2022-11-23T00:30:39;3.80;99.90
41924;DHT22;27613;48.116;11.656;2022-11-23T00:33:05;3.80;99.90
41924;DHT22;27613;48.116;11.656;2022-11-23T00:35:31;3.80;99.90
41924;DHT22;27613;48.116;11.656;2022-11-23T00:37:56;3.80;99.90
41924;DHT22;27613;48.116;11.656;2022-11-23T00:40:22;3.80;99.90
41924;DHT22;27613;48.116;11.656;2022-11-23T00:42:47;3.80;99.90
41924;DHT22;27613;48.116;11.656;2022-11-23T00:45:13;3.80;99.90
41924;DHT22;27613;48.116;11.656;2022-11-23T00:47:38;3.80;99.90
41924;DHT22;27613;48.116;11.656;2022-11-23T00:50:04;3.90;99.90
41924;DHT22;27613;48.116;11.656;2022-11-23T00:52:30;3.90;99.90
41924;DHT22;27613;48.116;11.656;2022-11-23T00:54:55;3.90;99.90
41924;DHT22;27613;48.116;11.656;2022-11-23T00:57:21;3.90;99.90
41924;DHT22;27613;48.116;11.656;2022-11-23T00:59:47;3.90;99.90
41924;DHT22;27613;48.116;11.656;2022-11-23T01:02:12;3.90;99.90
41924;DHT22;27613;48.116;11.656;2022-11-23T01:04:38;3.90;99.90
41924;DHT22;27613;48.116;11.656;2022-11-23T01:07:04;3.90;99.90
41924;DHT22;27613;48.116;11.656;2022-11-23T01:09:30;3.90;99.90
41924;DHT22;27613;48.116;11.656;2022-11-23T01:11:55;3.90;99.90
41924;DHT22;27613;48.116;11.656;2022-11-23T01:14:22;3.90;99.90
41924;DHT22;27613;48.116;11.656;2022-11-23T01:16:48;3.90;99.90
41924;DHT22;27613;48.116;11.656;2022-11-23T01:19:16;3.90;99.90
41924;DHT22;27613;48.116;11.656;2022-11-23T01:21:42;3.80;99.90
41924;DHT22;27613;48.116;11.656;2022-11-23T01:24:15;3.80;99.90
41924;DHT22;27613;48.116;11.656;2022-11-23T01:26:41;3.80;99.90
41924;DHT22;27613;48.116;11.656;2022-11-23T01:29:07;3.80;99.90
41924;DHT22;27613;48.116;11.656;2022-11-23T01:31:33;3.80;99.90
41924;DHT22;27613;48.116;11.656;2022-11-23T01:34:00;3.80;99.90
41924;DHT22;27613;48.116;11.656;2022-11-23T01:36:28;3.70;99.90
41924;DHT22;27613;48.116;11.656;2022-11-23T01:38:53;3.70;99.90
41924;DHT22;27613;48.116;11.656;2022-11-23T01:41:30;3.70;99.90
41924;DHT22;27613;48.116;11.656;2022-11-23T01:43:56;3.70;99.90
41924;DHT22;27613;48.116;11.656;2022-11-23T01:46:22;3.70;99.90
41924;DHT22;27613;48.116;11.656;2022-11-23T01:49:00;3.70;99.90
41924;DHT22;27613;48.116;11.656;2022-11-23T01:51:34;3.70;99.90
41924;DHT22;27613;48.116;11.656;2022-11-23T01:54:05;3.70;99.90
41924;DHT22;27613;48.116;11.656;2022-11-23T01:56:38;3.70;99.90
41924;DHT22;27613;48.116;11.656;2022-11-23T01:59:08;3.70;99.90
41924;DHT22;27613;48.116;11.656;2022-11-23T02:01:35;3.70;99.90
41924;DHT22;27613;48.116;11.656;2022-11-23T02:04:01;3.70;99.90
41924;DHT22;27613;48.116;11.656;2022-11-23T02:06:27;3.60;99.90
41924;DHT22;27613;48.116;11.656;2022-11-23T02:08:54;3.60;99.90
41924;DHT22;27613;48.116;11.656;2022-11-23T02:11:20;3.70;99.90
41924;DHT22;27613;48.116;11.656;2022-11-23T02:13:47;3.60;99.90
41924;DHT22;27613;48.116;11.656;2022-11-23T02:16:15;3.60;99.90
41924;DHT22;27613;48.116;11.656;2022-11-23T02:18:45;3.60;99.90
41924;DHT22;27613;48.116;11.656;2022-11-23T02:21:12;3.60;99.90
41924;DHT22;27613;48.116;11.656;2022-11-23T02:24:21;3.60;99.90
41924;DHT22;27613;48.116;11.656;2022-11-23T02:26:28;3.60;99.90
41924;DHT22;27613;48.116;11.656;2022-11-23T02:29:05;3.60;99.90
41924;DHT22;27613;48.116;11.656;2022-11-23T02:31:32;3.60;99.90
41924;DHT22;27613;48.116;11.656;2022-11-23T02:33:58;3.60;99.90
41924;DHT22;27613;48.116;11.656;2022-11-23T02:39:14;3.50;99.90
41924;DHT22;27613;48.116;11.656;2022-11-23T02:41:48;3.50;99.90
41924;DHT22;27613;48.116;11.656;2022-11-23T02:47:05;3.40;99.90
41924;DHT22;27613;48.116;11.656;2022-11-23T02:49:32;3.30;99.90
41924;DHT22;27613;48.116;11.656;2022-11-23T02:51:57;3.30;99.90
41924;DHT22;27613;48.116;11.656;2022-11-23T02:54:23;3.30;99.90
41924;DHT22;27613;48.116;11.656;2022-11-23T02:56:48;3.30;99.90
41924;DHT22;27613;48.116;11.656;2022-11-23T02:59:14;3.30;99.90
41924;DHT22;27613;48.116;11.656;2022-11-23T03:01:39;3.40;99.90
41924;DHT22;27613;48.116;11.656;2022-11-23T03:04:06;3.40;99.90
41924;DHT22;27613;48.116;11.656;2022-11-23T03:06:32;3.40;99.90
41924;DHT22;27613;48.116;11.656;2022-11-23T03:08:57;3.40;99.90
41924;DHT22;27613;48.116;11.656;2022-11-23T03:11:23;3.50;99.90
41924;DHT22;27613;48.116;11.656;2022-11-23T03:13:48;3.40;99.90
41924;DHT22;27613;48.116;11.656;2022-11-23T03:16:14;3.40;99.90
41924;DHT22;27613;48.116;11.656;2022-11-23T03:18:41;3.40;99.90
41924;DHT22;27613;48.116;11.656;2022-11-23T03:21:07;3.30;99.90
41924;DHT22;27613;48.116;11.656;2022-11-23T03:23:33;3.30;99.90
41924;DHT22;27613;48.116;11.656;2022-11-23T03:25:59;3.30;99.90
41924;DHT22;27613;48.116;11.656;2022-11-23T03:28:25;3.30;99.90
41924;DHT22;27613;48.116;11.656;2022-11-23T03:30:51;3.30;99.90
41924;DHT22;27613;48.116;11.656;2022-11-23T03:33:17;3.20;99.90
41924;DHT22;27613;48.116;11.656;2022-11-23T03:35:43;3.20;99.90
41924;DHT22;27613;48.116;11.656;2022-11-23T03:38:09;3.10;99.90
41924;DHT22;27613;48.116;11.656;2022-11-23T03:40:34;3.10;99.90
41924;DHT22;27613;48.116;11.656;2022-11-23T03:43:00;3.10;99.90
41924;DHT22;27613;48.116;11.656;2022-11-23T03:45:26;3.10;99.90
41924;DHT22;27613;48.116;11.656;2022-11-23T03:47:51;3.00;99.90
41924;DHT22;27613;48.116;11.656;2022-11-23T03:50:17;3.00;99.90
41924;DHT22;27613;48.116;11.656;2022-11-23T03:52:43;3.00;99.90
41924;DHT22;27613;48.116;11.656;2022-11-23T03:55:08;3.00;99.90
41924;DHT22;27613;48.116;11.656;2022-11-23T03:57:34;2.90;99.90
41924;DHT22;27613;48.116;11.656;2022-11-23T04:00:00;2.90;99.90
41924;DHT22;27613;48.116;11.656;2022-11-23T04:02:25;2.90;99.90
41924;DHT22;27613;48.116;11.656;2022-11-23T04:04:51;2.90;99.90
41924;DHT22;27613;48.116;11.656;2022-11-23T04:07:16;2.90;99.90
41924;DHT22;27613;48.116;11.656;2022-11-23T04:09:42;2.90;99.90
41924;DHT22;27613;48.116;11.656;2022-11-23T04:12:08;3.00;99.90
41924;DHT22;27613;48.116;11.656;2022-11-23T04:14:33;3.00;99.90
41924;DHT22;27613;48.116;11.656;2022-11-23T04:16:59;3.00;99.90
41924;DHT22;27613;48.116;11.656;2022-11-23T04:19:26;2.90;99.90
41924;DHT22;27613;48.116;11.656;2022-11-23T04:21:52;2.80;99.90
41924;DHT22;27613;48.116;11.656;2022-11-23T04:24:18;2.80;99.90
41924;DHT22;27613;48.116;11.656;2022-11-23T04:26:43;2.80;99.90
41924;DHT22;27613;48.116;11.656;2022-11-23T04:29:09;2.80;99.90
41924;DHT22;27613;48.116;11.656;2022-11-23T04:31:35;2.80;99.90
41924;DHT22;27613;48.116;11.656;2022-11-23T04:34:00;2.80;99.90
41924;DHT22;27613;48.116;11.656;2022-11-23T04:36:26;2.70;99.90
41924;DHT22;27613;48.116;11.656;2022-11-23T04:38:52;2.80;99.90
41924;DHT22;27613;48.116;11.656;2022-11-23T04:41:17;2.80;99.90
41924;DHT22;27613;48.116;11.656;2022-11-23T04:43:43;2.80;99.90
41924;DHT22;27613;48.116;11.656;2022-11-23T04:46:10;2.80;99.90
41924;DHT22;27613;48.116;11.656;2022-11-23T04:48:36;2.80;99.90
41924;DHT22;27613;48.116;11.656;2022-11-23T04:51:01;2.90;99.90
41924;DHT22;27613;48.116;11.656;2022-11-23T04:53:27;2.90;99.90
41924;DHT22;27613;48.116;11.656;2022-11-23T04:55:53;2.80;99.90
41924;DHT22;27613;48.116;11.656;2022-11-23T04:58:18;2.80;99.90
41924;DHT22;27613;48.116;11.656;2022-11-23T05:00:44;2.80;99.90
41924;DHT22;27613;48.116;11.656;2022-11-23T05:03:09;2.80;99.90
41924;DHT22;27613;48.116;11.656;2022-11-23T05:05:39;2.80;99.90
41924;DHT22;27613;48.116;11.656;2022-11-23T05:08:05;2.90;99.90
41924;DHT22;27613;48.116;11.656;2022-11-23T05:10:31;2.90;99.90
41924;DHT22;27613;48.116;11.656;2022-11-23T05:12:57;2.90;99.90
41924;DHT22;27613;48.116;11.656;2022-11-23T05:15:22;2.90;99.90
41924;DHT22;27613;48.116;11.656;2022-11-23T05:17:48;2.90;99.90
41924;DHT22;27613;48.116;11.656;2022-11-23T05:20:14;2.90;99.90
41924;DHT22;27613;48.116;11.656;2022-11-23T05:22:39;3.00;99.90
41924;DHT22;27613;48.116;11.656;2022-11-23T05:25:06;3.00;99.90
41924;DHT22;27613;48.116;11.656;2022-11-23T05:27:31;3.00;99.90
41924;DHT22;27613;48.116;11.656;2022-11-23T05:29:57;2.90;99.90
41924;DHT22;27613;48.116;11.656;2022-11-23T05:32:23;3.00;99.90
41924;DHT22;27613;48.116;11.656;2022-11-23T05:34:48;2.90;99.90
41924;DHT22;27613;48.116;11.656;2022-11-23T05:37:14;3.00;99.90
41924;DHT22;27613;48.116;11.656;2022-11-23T05:39:40;3.00;99.90
41924;DHT22;27613;48.116;11.656;2022-11-23T05:42:05;2.90;99.90
41924;DHT22;27613;48.116;11.656;2022-11-23T05:44:31;2.90;99.90
41924;DHT22;27613;48.116;11.656;2022-11-23T05:46:56;2.80;99.90
41924;DHT22;27613;48.116;11.656;2022-11-23T05:49:22;2.80;99.90
41924;DHT22;27613;48.116;11.656;2022-11-23T05:51:48;2.80;99.90
41924;DHT22;27613;48.116;11.656;2022-11-23T05:54:13;2.70;99.90
41924;DHT22;27613;48.116;11.656;2022-11-23T05:56:39;2.70;99.90
41924;DHT22;27613;48.116;11.656;2022-11-23T05:59:05;2.70;99.90
41924;DHT22;27613;48.116;11.656;2022-11-23T06:01:31;2.70;99.90
41924;DHT22;27613;48.116;11.656;2022-11-23T06:03:57;2.70;99.90
41924;DHT22;27613;48.116;11.656;2022-11-23T06:06:23;2.70;99.90
41924;DHT22;27613;48.116;11.656;2022-11-23T06:08:48;2.70;99.90
41924;DHT22;27613;48.116;11.656;2022-11-23T06:11:14;2.70;99.90
41924;DHT22;27613;48.116;11.656;2022-11-23T06:13:39;2.70;99.90
41924;DHT22;27613;48.116;11.656;2022-11-23T06:16:05;2.70;99.90
41924;DHT22;27613;48.116;11.656;2022-11-23T06:18:31;2.70;99.90
41924;DHT22;27613;48.116;11.656;2022-11-23T06:21:00;2.80;99.90
41924;DHT22;27613;48.116;11.656;2022-11-23T06:23:26;2.80;99.90
41924;DHT22;27613;48.116;11.656;2022-11-23T06:25:52;2.80;99.90
41924;DHT22;27613;48.116;11.656;2022-11-23T06:28:18;2.70;99.90
41924;DHT22;27613;48.116;11.656;2022-11-23T06:30:43;2.70;99.90
41924;DHT22;27613;48.116;11.656;2022-11-23T06:33:09;2.70;99.90
41924;DHT22;27613;48.116;11.656;2022-11-23T06:35:35;2.70;99.90
41924;DHT22;27613;48.116;11.656;2022-11-23T06:38:00;2.70;99.90
41924;DHT22;27613;48.116;11.656;2022-11-23T06:40:26;2.80;99.90
41924;DHT22;27613;48.116;11.656;2022-11-23T06:42:58;2.80;99.90
41924;DHT22;27613;48.116;11.656;2022-11-23T06:45:24;2.80;99.90
41924;DHT22;27613;48.116;11.656;2022-11-23T06:47:49;2.80;99.90
41924;DHT22;27613;48.116;11.656;2022-11-23T06:50:16;2.90;99.90
41924;DHT22;27613;48.116;11.656;2022-11-23T06:52:42;2.90;99.90
41924;DHT22;27613;48.116;11.656;2022-11-23T06:55:07;3.00;99.90
41924;DHT22;27613;48.116;11.656;2022-11-23T06:57:33;3.00;99.90
41924;DHT22;27613;48.116;11.656;2022-11-23T06:59:58;3.10;99.90
41924;DHT22;27613;48.116;11.656;2022-11-23T07:02:24;3.20;99.90
41924;DHT22;27613;48.116;11.656;2022-11-23T07:04:50;3.20;99.90
41924;DHT22;27613;48.116;11.656;2022-11-23T07:07:17;3.30;99.90
41924;DHT22;27613;48.116;11.656;2022-11-23T07:09:42;3.30;99.90
41924;DHT22;27613;48.116;11.656;2022-11-23T07:12:08;3.30;99.90
41924;DHT22;27613;48.116;11.656;2022-11-23T07:14:33;3.40;99.90
41924;DHT22;27613;48.116;11.656;2022-11-23T07:16:59;3.40;99.90
41924;DHT22;27613;48.116;11.656;2022-11-23T07:19:25;3.50;99.90
41924;DHT22;27613;48.116;11.656;2022-11-23T07:21:50;3.50;99.90
41924;DHT22;27613;48.116;11.656;2022-11-23T07:24:16;3.60;99.90
41924;DHT22;27613;48.116;11.656;2022-11-23T07:26:41;3.70;99.90
41924;DHT22;27613;48.116;11.656;2022-11-23T07:29:07;3.80;99.90
41924;DHT22;27613;48.116;11.656;2022-11-23T07:31:32;3.80;99.90
41924;DHT22;27613;48.116;11.656;2022-11-23T07:33:58;3.80;99.90
41924;DHT22;27613;48.116;11.656;2022-11-23T07:36:23;3.90;99.90
41924;DHT22;27613;48.116;11.656;2022-11-23T07:38:49;4.00;99.90
41924;DHT22;27613;48.116;11.656;2022-11-23T07:41:15;4.00;99.90
41924;DHT22;27613;48.116;11.656;2022-11-23T07:43:40;4.00;99.90
41924;DHT22;27613;48.116;11.656;2022-11-23T07:46:06;4.10;99.90
41924;DHT22;27613;48.116;11.656;2022-11-23T07:48:31;4.10;99.90
41924;DHT22;27613;48.116;11.656;2022-11-23T07:50:57;4.10;99.90
41924;DHT22;27613;48.116;11.656;2022-11-23T07:53:22;4.20;99.90
41924;DHT22;27613;48.116;11.656;2022-11-23T07:55:48;4.20;99.90
41924;DHT22;27613;48.116;11.656;2022-11-23T07:58:14;4.40;99.90
41924;DHT22;27613;48.116;11.656;2022-11-23T08:00:39;4.40;99.90
41924;DHT22;27613;48.116;11.656;2022-11-23T08:03:05;4.60;99.90
41924;DHT22;27613;48.116;11.656;2022-11-23T08:05:31;4.80;99.90
41924;DHT22;27613;48.116;11.656;2022-11-23T08:08:01;5.90;99.90
41924;DHT22;27613;48.116;11.656;2022-11-23T08:10:28;6.40;99.90
41924;DHT22;27613;48.116;11.656;2022-11-23T08:13:01;6.30;99.90
41924;DHT22;27613;48.116;11.656;2022-11-23T08:15:27;6.40;99.90
41924;DHT22;27613;48.116;11.656;2022-11-23T08:17:57;6.40;99.90
41924;DHT22;27613;48.116;11.656;2022-11-23T08:20:24;6.10;99.90
41924;DHT22;27613;48.116;11.656;2022-11-23T08:22:49;6.00;99.90
41924;DHT22;27613;48.116;11.656;2022-11-23T08:25:15;6.00;99.90
41924;DHT22;27613;48.116;11.656;2022-11-23T08:27:41;6.00;99.90
41924;DHT22;27613;48.116;11.656;2022-11-23T08:30:07;6.00;99.90
41924;DHT22;27613;48.116;11.656;2022-11-23T08:32:32;6.20;99.90
41924;DHT22;27613;48.116;11.656;2022-11-23T08:34:58;6.20;99.90
41924;DHT22;27613;48.116;11.656;2022-11-23T08:37:24;6.50;99.90
41924;DHT22;27613;48.116;11.656;2022-11-23T08:39:49;6.70;99.90
41924;DHT22;27613;48.116;11.656;2022-11-23T08:42:15;7.40;99.90
41924;DHT22;27613;48.116;11.656;2022-11-23T08:44:40;7.70;99.90
41924;DHT22;27613;48.116;11.656;2022-11-23T08:47:06;8.30;99.90
41924;DHT22;27613;48.116;11.656;2022-11-23T08:49:32;8.20;99.90
41924;DHT22;27613;48.116;11.656;2022-11-23T08:51:57;8.30;99.90
41924;DHT22;27613;48.116;11.656;2022-11-23T08:54:24;7.60;99.90
41924;DHT22;27613;48.116;11.656;2022-11-23T08:56:50;7.40;99.90
41924;DHT22;27613;48.116;11.656;2022-11-23T08:59:16;7.50;99.90
41924;DHT22;27613;48.116;11.656;2022-11-23T09:01:43;7.90;99.90
41924;DHT22;27613;48.116;11.656;2022-11-23T09:04:08;7.40;99.90
41924;DHT22;27613;48.116;11.656;2022-11-23T09:06:34;7.50;99.90
41924;DHT22;27613;48.116;11.656;2022-11-23T09:09:00;7.50;99.90
41924;DHT22;27613;48.116;11.656;2022-11-23T09:11:26;7.50;99.90
41924;DHT22;27613;48.116;11.656;2022-11-23T09:13:51;7.30;99.90
41924;DHT22;27613;48.116;11.656;2022-11-23T09:16:17;7.20;99.90
41924;DHT22;27613;48.116;11.656;2022-11-23T09:18:43;7.00;99.90
41924;DHT22;27613;48.116;11.656;2022-11-23T09:21:09;7.10;99.90
41924;DHT22;27613;48.116;11.656;2022-11-23T09:23:35;7.10;99.90
41924;DHT22;27613;48.116;11.656;2022-11-23T09:26:01;7.10;99.90
41924;DHT22;27613;48.116;11.656;2022-11-23T09:28:28;7.30;99.90
41924;DHT22;27613;48.116;11.656;2022-11-23T09:30:54;7.40;99.90
41924;DHT22;27613;48.116;11.656;2022-11-23T09:33:21;7.50;99.90
41924;DHT22;27613;48.116;11.656;2022-11-23T09:35:54;7.50;99.90
41924;DHT22;27613;48.116;11.656;2022-11-23T09:38:20;7.40;99.90
41924;DHT22;27613;48.116;11.656;2022-11-23T09:40:45;7.20;99.90
41924;DHT22;27613;48.116;11.656;2022-11-23T09:43:26;7.30;99.90
41924;DHT22;27613;48.116;11.656;2022-11-23T09:45:57;7.30;99.90
41924;DHT22;27613;48.116;11.656;2022-11-23T09:51:20;7.40;99.90
41924;DHT22;27613;48.116;11.656;2022-11-23T09:53:59;7.20;99.90
41924;DHT22;27613;48.116;11.656;2022-11-23T09:56:32;7.20;98.90
41924;DHT22;27613;48.116;11.656;2022-11-23T09:59:04;9.30;95.60
41924;DHT22;27613;48.116;11.656;2022-11-23T10:01:35;11.80;88.30
41924;DHT22;27613;48.116;11.656;2022-11-23T10:04:03;14.30;75.90
41924;DHT22;27613;48.116;11.656;2022-11-23T10:06:30;15.30;70.20
41924;DHT22;27613;48.116;11.656;2022-11-23T10:12:11;17.60;62.20
41924;DHT22;27613;48.116;11.656;2022-11-23T10:23:46;20.50;54.70
41924;DHT22;27613;48.116;11.656;2022-11-23T10:26:18;20.20;52.00
41924;DHT22;27613;48.116;11.656;2022-11-23T10:28:45;17.10;54.10
41924;DHT22;27613;48.116;11.656;2022-11-23T10:31:19;18.30;55.80
41924;DHT22;27613;48.116;11.656;2022-11-23T10:34:03;20.30;53.00
41924;DHT22;27613;48.116;11.656;2022-11-23T10:36:34;20.80;51.40
41924;DHT22;27613;48.116;11.656;2022-11-23T10:39:01;19.00;52.30
41924;DHT22;27613;48.116;11.656;2022-11-23T10:41:29;18.80;52.40
41924;DHT22;27613;48.116;11.656;2022-11-23T10:44:11;16.90;56.90
41924;DHT22;27613;48.116;11.656;2022-11-23T10:46:40;16.40;56.90
41924;DHT22;27613;48.116;11.656;2022-11-23T10:51:57;17.80;58.40
41924;DHT22;27613;48.116;11.656;2022-11-23T10:54:48;18.90;55.30
41924;DHT22;27613;48.116;11.656;2022-11-23T10:57:29;16.90;59.20
41924;DHT22;27613;48.116;11.656;2022-11-23T10:59:58;17.70;59.20
41924;DHT22;27613;48.116;11.656;2022-11-23T11:02:24;18.90;57.40
41924;DHT22;27613;48.116;11.656;2022-11-23T11:05:00;20.60;54.20
41924;DHT22;27613;48.116;11.656;2022-11-23T11:07:36;22.20;51.30
41924;DHT22;27613;48.116;11.656;2022-11-23T11:10:05;23.70;48.90
41924;DHT22;27613;48.116;11.656;2022-11-23T11:12:33;24.30;47.50
41924;DHT22;27613;48.116;11.656;2022-11-23T11:15:03;23.60;46.90
41924;DHT22;27613;48.116;11.656;2022-11-23T11:17:32;24.20;47.50
41924;DHT22;27613;48.116;11.656;2022-11-23T11:22:43;23.10;46.70
41924;DHT22;27613;48.116;11.656;2022-11-23T11:27:55;18.80;51.50
41924;DHT22;27613;48.116;11.656;2022-11-23T11:30:27;17.30;54.80
41924;DHT22;27613;48.116;11.656;2022-11-23T11:33:09;16.60;57.60
41924;DHT22;27613;48.116;11.656;2022-11-23T11:35:41;17.70;58.20
41924;DHT22;27613;48.116;11.656;2022-11-23T11:38:16;16.60;56.90
41924;DHT22;27613;48.116;11.656;2022-11-23T11:40:52;13.70;61.80
41924;DHT22;27613;48.116;11.656;2022-11-23T11:43:40;13.60;64.50
41924;DHT22;27613;48.116;11.656;2022-11-23T11:46:16;13.80;64.60
41924;DHT22;27613;48.116;11.656;2022-11-23T11:51:45;17.80;56.50
41924;DHT22;27613;48.116;11.656;2022-11-23T11:57:02;20.80;52.40
41924;DHT22;27613;48.116;11.656;2022-11-23T11:59:42;21.40;50.80
41924;DHT22;27613;48.116;11.656;2022-11-23T12:02:18;21.80;49.60
41924;DHT22;27613;48.116;11.656;2022-11-23T12:07:35;22.20;47.10
41924;DHT22;27613;48.116;11.656;2022-11-23T12:10:20;23.10;46.20
41924;DHT22;27613;48.116;11.656;2022-11-23T12:12:47;23.50;45.50
41924;DHT22;27613;48.116;11.656;2022-11-23T12:15:23;23.20;46.60
41924;DHT22;27613;48.116;11.656;2022-11-23T12:18:01;18.80;51.00
41924;DHT22;27613;48.116;11.656;2022-11-23T12:21:03;17.20;53.10
41924;DHT22;27613;48.116;11.656;2022-11-23T12:26:47;16.90;56.60
41924;DHT22;27613;48.116;11.656;2022-11-23T12:43:00;25.90;42.70
41924;DHT22;27613;48.116;11.656;2022-11-23T12:48:25;20.70;47.40
41924;DHT22;27613;48.116;11.656;2022-11-23T12:58:36;24.30;43.10
41924;DHT22;27613;48.116;11.656;2022-11-23T13:01:11;25.10;43.40
41924;DHT22;27613;48.116;11.656;2022-11-23T13:09:57;21.60;47.70
41924;DHT22;27613;48.116;11.656;2022-11-23T13:15:45;17.70;55.30
41924;DHT22;27613;48.116;11.656;2022-11-23T13:18:39;20.00;53.30
41924;DHT22;27613;48.116;11.656;2022-11-23T13:21:24;19.30;53.30
41924;DHT22;27613;48.116;11.656;2022-11-23T13:23:51;19.10;52.20
41924;DHT22;27613;48.116;11.656;2022-11-23T13:26:22;17.50;54.20
41924;DHT22;27613;48.116;11.656;2022-11-23T13:28:52;18.70;54.90
41924;DHT22;27613;48.116;11.656;2022-11-23T13:31:18;19.20;53.30
41924;DHT22;27613;48.116;11.656;2022-11-23T13:33:48;17.60;55.60
41924;DHT22;27613;48.116;11.656;2022-11-23T13:39:00;18.90;55.70
41924;DHT22;27613;48.116;11.656;2022-11-23T13:44:23;18.20;55.00
41924;DHT22;27613;48.116;11.656;2022-11-23T13:47:00;19.60;53.00
41924;DHT22;27613;48.116;11.656;2022-11-23T13:49:33;20.10;51.40
41924;DHT22;27613;48.116;11.656;2022-11-23T13:54:58;19.60;51.30
41924;DHT22;27613;48.116;11.656;2022-11-23T13:57:24;19.20;52.00
41924;DHT22;27613;48.116;11.656;2022-11-23T13:59:50;18.30;55.20
41924;DHT22;27613;48.116;11.656;2022-11-23T14:04:43;15.30;60.70
41924;DHT22;27613;48.116;11.656;2022-11-23T14:10:43;13.60;64.90
41924;DHT22;27613;48.116;11.656;2022-11-23T14:12:53;13.30;67.60
41924;DHT22;27613;48.116;11.656;2022-11-23T14:15:23;12.30;69.70
41924;DHT22;27613;48.116;11.656;2022-11-23T14:34:09;10.60;77.10
41924;DHT22;27613;48.116;11.656;2022-11-23T14:36:48;10.50;78.10
41924;DHT22;27613;48.116;11.656;2022-11-23T14:41:58;10.20;79.60
41924;DHT22;27613;48.116;11.656;2022-11-23T14:44:26;11.00;79.00
41924;DHT22;27613;48.116;11.656;2022-11-23T14:47:03;11.70;76.50
41924;DHT22;27613;48.116;11.656;2022-11-23T14:49:29;11.50;75.60
41924;DHT22;27613;48.116;11.656;2022-11-23T14:51:56;11.50;76.50
41924;DHT22;27613;48.116;11.656;2022-11-23T14:54:22;12.00;75.50
41924;DHT22;27613;48.116;11.656;2022-11-23T14:56:49;11.90;74.50
41924;DHT22;27613;48.116;11.656;2022-11-23T15:01:47;12.00;75.30
41924;DHT22;27613;48.116;11.656;2022-11-23T15:04:27;11.90;75.90
41924;DHT22;27613;48.116;11.656;2022-11-23T15:07:05;11.80;76.00
41924;DHT22;27613;48.116;11.656;2022-11-23T15:09:45;11.30;77.90
41924;DHT22;27613;48.116;11.656;2022-11-23T15:12:28;10.70;79.70
41924;DHT22;27613;48.116;11.656;2022-11-23T15:15:19;10.30;81.40
41924;DHT22;27613;48.116;11.656;2022-11-23T15:20:21;8.90;86.50
41924;DHT22;27613;48.116;11.656;2022-11-23T15:22:47;8.90;88.50
41924;DHT22;27613;48.116;11.656;2022-11-23T15:25:16;8.70;89.30
41924;DHT22;27613;48.116;11.656;2022-11-23T15:27:45;8.60;90.20
41924;DHT22;27613;48.116;11.656;2022-11-23T15:30:25;8.60;90.70
41924;DHT22;27613;48.116;11.656;2022-11-23T15:33:02;8.20;91.30
41924;DHT22;27613;48.116;11.656;2022-11-23T15:35:35;7.90;92.20
41924;DHT22;27613;48.116;11.656;2022-11-23T15:38:03;7.70;92.90
41924;DHT22;27613;48.116;11.656;2022-11-23T15:40:35;7.60;93.70
41924;DHT22;27613;48.116;11.656;2022-11-23T15:43:00;7.40;94.60
41924;DHT22;27613;48.116;11.656;2022-11-23T15:48:14;7.10;96.30
41924;DHT22;27613;48.116;11.656;2022-11-23T15:50:50;7.10;97.10
41924;DHT22;27613;48.116;11.656;2022-11-23T15:53:17;6.90;97.80
41924;DHT22;27613;48.116;11.656;2022-11-23T15:55:43;6.80;98.70
41924;DHT22;27613;48.116;11.656;2022-11-23T15:58:12;6.60;99.80
41924;DHT22;27613;48.116;11.656;2022-11-23T16:00:39;6.70;99.90
41924;DHT22;27613;48.116;11.656;2022-11-23T16:03:27;6.70;99.90
41924;DHT22;27613;48.116;11.656;2022-11-23T16:08:38;6.50;99.90
41924;DHT22;27613;48.116;11.656;2022-11-23T16:11:33;6.50;99.90
41924;DHT22;27613;48.116;11.656;2022-11-23T16:14:19;6.40;99.90
41924;DHT22;27613;48.116;11.656;2022-11-23T16:19:47;6.30;99.90
41924;DHT22;27613;48.116;11.656;2022-11-23T16:22:41;6.10;99.90
41924;DHT22;27613;48.116;11.656;2022-11-23T16:25:29;6.00;99.90
41924;DHT22;27613;48.116;11.656;2022-11-23T16:30:24;5.50;99.90
41924;DHT22;27613;48.116;11.656;2022-11-23T16:32:50;5.30;99.90
41924;DHT22;27613;48.116;11.656;2022-11-23T16:35:17;5.30;99.90
41924;DHT22;27613;48.116;11.656;2022-11-23T16:37:43;5.40;99.90
41924;DHT22;27613;48.116;11.656;2022-11-23T16:40:09;5.30;99.90
41924;DHT22;27613;48.116;11.656;2022-11-23T16:42:35;5.20;99.90
41924;DHT22;27613;48.116;11.656;2022-11-23T17:03:16;4.70;99.90
41924;DHT22;27613;48.116;11.656;2022-11-23T17:05:41;4.50;99.90
41924;DHT22;27613;48.116;11.656;2022-11-23T17:08:07;4.20;99.90
41924;DHT22;27613;48.116;11.656;2022-11-23T17:10:33;4.10;99.90
41924;DHT22;27613;48.116;11.656;2022-11-23T17:12:59;4.10;99.90
41924;DHT22;27613;48.116;11.656;2022-11-23T17:15:24;4.10;99.90
41924;DHT22;27613;48.116;11.656;2022-11-23T17:17:50;4.10;99.90
41924;DHT22;27613;48.116;11.656;2022-11-23T17:20:17;4.10;99.90
41924;DHT22;27613;48.116;11.656;2022-11-23T17:22:42;4.10;99.90
41924;DHT22;27613;48.116;11.656;2022-11-23T17:25:10;4.10;99.90
41924;DHT22;27613;48.116;11.656;2022-11-23T17:27:38;4.10;99.90
41924;DHT22;27613;48.116;11.656;2022-11-23T17:30:24;4.10;99.90
41924;DHT22;27613;48.116;11.656;2022-11-23T17:32:51;3.80;99.90
41924;DHT22;27613;48.116;11.656;2022-11-23T17:35:17;3.80;99.90
41924;DHT22;27613;48.116;11.656;2022-11-23T17:37:43;3.50;99.90
41924;DHT22;27613;48.116;11.656;2022-11-23T17:40:14;3.50;99.90
41924;DHT22;27613;48.116;11.656;2022-11-23T17:42:40;3.40;99.90
41924;DHT22;27613;48.116;11.656;2022-11-23T17:45:05;3.40;99.90
41924;DHT22;27613;48.116;11.656;2022-11-23T17:47:31;3.30;99.90
41924;DHT22;27613;48.116;11.656;2022-11-23T17:49:57;3.30;99.90
41924;DHT22;27613;48.116;11.656;2022-11-23T17:52:23;3.40;99.90
41924;DHT22;27613;48.116;11.656;2022-11-23T17:54:50;3.30;99.90
41924;DHT22;27613;48.116;11.656;2022-11-23T17:57:23;3.20;99.90